ROMMA est une association bénévole à but non lucratif. Votre soutien est indispensable : ADHERER à ROMMA ou FAIRE un DON

Le Versoud - (38, Isère)

Vallée du Grésivaudan (220 m)   Longitude: 05° 51' 44" E   Latitude: 45° 13' 06" N Station partenaire n°6
 

Détail journalier du     <<     >>

Température Humidité Pression Vent Dir Rafale Dir. rafale Ensol.
Heure (°C) (%) (hPa) (km/h) (km/h) (min)
01:00 12.491101700---0
02:00 11.991101800---0
03:00 11.293101700---0
04:00 10.893101700---0
05:00 10.994101600---0
06:00 10.193101700---0
07:00 9.794101600---0
08:00 9.094101700---0
09:00 9.695101700---0
10:00 10.796101700---15
11:00 14.887101700---60
12:00 17.772101600---60
13:00 19.569101500---60
14:00 21.360101400---60
15:00 23.454101200---60
16:00 25.244101100---60
17:00 26.148101000---60
18:00 22.458101000---20
19:00 21.460101000---5
20:00 20.859101000---0
21:00 22.3531010011SO0
22:00 22.95010102S31S0
23:00 21.45710101---24SSE0
minuit 17.5721009010ENE0

Graphique du 14-10-2019

 

Serveur OMMA